Birdseye, Utah
Current Conditions -  °F | °C
As of 10:55 PM on Friday 19 Dec 2014 (Local Time) from KPVU Reporting Station
Overcast Overcast  
Wind Chill: 33°   Ceiling: 6500
Heat Index: 37°   Visibility: 10mi
Dew Point: 27°   Wind: 6mph
Humidity: 65%   Direction: 340°NNW
Pressure: 30.15"   Gusts: NA
Location:  39.7497°N, 111.442°W
Report Text: KPVU 200555Z AUTO 34005KT 10SM OVC065 03/M03 A3015 RMK AO1 10040 20020 52007
Loading
Personal Weather Stations






























Interactive Weather Map New forecast layout! Learn more

10-Day Weather Forecast

Advertisements
Track Severe Weather on mobile